Time;durP1;ratioP1;P1;durP2;ratioP2;P2;SDS_P1;SDS_P2;PMS_P1;PMS_P2;Temp;Humidity;BMP_temperature;BMP_pressure;BME280_temperature;BME280_humidity;BME280_pressure;Samples;Min_cycle;Max_cycle;Signal;HPM_P1;HPM_P2
2023/08/07 00:01:34;;;;;;;;;;;;;;;16.81;82.83;99208.17;108499;1275;59558;-87
2023/08/07 00:04:12;;;;;;;;;;;;;;;16.83;82.91;99203.54;108516;1259;125346;-87
2023/08/07 00:06:39;;;;;;;;;;;;;;;16.83;82.85;99204.95;108684;1260;66645;-85
2023/08/07 00:09:10;;;;;;;;;;;;;;;16.84;82.83;99209.89;108599;1259;124755;-87
2023/08/07 00:11:41;;;;;;;;;;;;;;;16.86;82.80;99215.33;108557;1265;59358;-87
2023/08/07 00:14:11;;;;;;;;;;;;;;;16.87;82.78;99219.90;108555;1259;59840;-88
2023/08/07 00:16:38;;;;;;;;;;;;;;;16.89;82.77;99217.20;108520;1259;125395;-87
2023/08/07 00:19:05;;;;;;;;;;;;;;;16.89;82.72;99213.45;108626;1262;67550;-87
2023/08/07 00:21:35;;;;;;;;;;;;;;;16.87;82.50;99211.40;108511;1258;125889;-87
2023/08/07 00:24:05;;;;;;;;;;;;;;;16.88;82.57;99215.99;108618;1259;59384;-87
2023/08/07 00:26:32;;;;;;;;;;;;;;;16.89;82.43;99216.13;108502;1260;125058;-87
2023/08/07 00:28:59;;;;;;;;;;;;;;;16.89;82.31;99217.73;108669;1263;72970;-87
2023/08/07 00:31:30;;;;;;;;;;;;;;;16.85;82.14;99215.34;108644;1259;67356;-88
2023/08/07 00:33:57;;;;;;;;;;;;;;;16.82;82.04;99219.14;108443;1259;125319;-86
2023/08/07 00:36:25;;;;;;;;;;;;;;;16.80;82.10;99218.10;108630;1260;59190;-87
2023/08/07 00:38:52;;;;;;;;;;;;;;;16.81;81.93;99212.60;108511;1259;125250;-87
2023/08/07 00:41:20;;;;;;;;;;;;;;;16.78;81.63;99212.66;108578;1265;75287;-87
2023/08/07 00:43:46;;;;;;;;;;;;;;;16.73;81.51;99211.20;108463;1260;66616;-87
2023/08/07 00:46:14;;;;;;;;;;;;;;;16.68;81.42;99212.56;108407;1259;125358;-87
2023/08/07 00:48:44;;;;;;;;;;;;;;;16.63;81.37;99208.41;108538;1259;59383;-87
2023/08/07 00:51:11;;;;;;;;;;;;;;;16.58;81.30;99203.42;108440;1259;125440;-87
2023/08/07 00:53:41;;;;;;;;;;;;;;;16.50;81.32;99209.60;108541;1259;73646;-86
2023/08/07 00:56:16;;;;;;;;;;;;;;;16.48;81.57;99211.27;108575;1259;66431;-86
2023/08/07 00:58:43;;;;;;;;;;;;;;;16.46;81.74;99204.23;108530;1259;125155;-86
2023/08/07 01:01:10;;;;;;;;;;;;;;;16.47;81.82;99201.91;108802;1256;59086;-85
2023/08/07 01:03:40;;;;;;;;;;;;;;;16.45;81.77;99201.61;108656;1256;124832;-86
2023/08/07 01:06:10;;;;;;;;;;;;;;;16.44;81.90;99198.26;108797;1256;73881;-86
2023/08/07 01:08:39;;;;;;;;;;;;;;;16.45;81.93;99196.29;108582;1255;124850;-87
2023/08/07 01:11:10;;;;;;;;;;;;;;;16.46;81.87;99198.20;108792;1259;72507;-86
2023/08/07 01:13:40;;;;;;;;;;;;;;;16.44;81.84;99201.10;108756;1262;59377;-86
2023/08/07 01:16:13;;;;;;;;;;;;;;;16.43;81.88;99198.27;108659;1259;125376;-86
2023/08/07 01:18:40;;;;;;;;;;;;;;;16.43;81.82;99196.85;109025;1259;73104;-86
2023/08/07 01:21:07;;;;;;;;;;;;;;;16.42;81.83;99195.48;108855;1258;125156;-86
2023/08/07 01:23:34;;;;;;;;;;;;;;;16.43;81.94;99180.77;108955;1255;72934;-86
2023/08/07 01:26:01;;;;;;;;;;;;;;;16.43;81.87;99172.78;108984;1261;59361;-86
2023/08/07 01:28:39;;;;;;;;;;;;;;;16.43;81.91;99172.08;108687;1256;125095;-86
2023/08/07 01:31:10;;;;;;;;;;;;;;;16.43;81.96;99173.50;108861;1256;72916;-87
2023/08/07 01:33:43;;;;;;;;;;;;;;;16.43;81.91;99175.09;108669;1256;126003;-86
2023/08/07 01:36:10;;;;;;;;;;;;;;;16.41;81.90;99175.13;108830;1256;72129;-86
2023/08/07 01:38:37;;;;;;;;;;;;;;;16.40;81.87;99177.64;108788;1256;125524;-86
2023/08/07 01:41:04;;;;;;;;;;;;;;;16.40;81.94;99177.11;108890;1258;59926;-86
2023/08/07 01:43:32;;;;;;;;;;;;;;;16.39;81.82;99174.14;108780;1256;75658;-86
2023/08/07 01:45:59;;;;;;;;;;;;;;;16.40;81.99;99178.02;108750;1258;123883;-87
2023/08/07 01:48:26;;;;;;;;;;;;;;;16.41;81.91;99173.38;108891;1256;73286;-86
2023/08/07 01:50:54;;;;;;;;;;;;;;;16.40;81.83;99163.84;108793;1257;125987;-86
2023/08/07 01:53:21;;;;;;;;;;;;;;;16.36;81.78;99165.34;108872;1256;60256;-85
2023/08/07 01:55:49;;;;;;;;;;;;;;;16.34;81.86;99170.34;108755;1263;75696;-86
2023/08/07 01:58:16;;;;;;;;;;;;;;;16.33;81.94;99174.43;108738;1256;124634;-86
2023/08/07 02:00:43;;;;;;;;;;;;;;;16.34;81.95;99182.73;108859;1256;71534;-86
2023/08/07 02:03:12;;;;;;;;;;;;;;;16.32;81.84;99186.85;109029;1255;123940;-86
2023/08/07 02:05:40;;;;;;;;;;;;;;;16.32;82.08;99172.52;108517;1255;61159;-87
2023/08/07 02:08:07;;;;;;;;;;;;;;;16.29;82.01;99159.48;107733;1256;74334;-86
2023/08/07 02:10:36;;;;;;;;;;;;;;;16.26;82.11;99151.23;107672;1256;125027;-86
2023/08/07 02:13:03;;;;;;;;;;;;;;;16.23;82.22;99154.33;107695;1256;72072;-86
2023/08/07 02:15:33;;;;;;;;;;;;;;;16.20;82.39;99156.16;108110;1256;123644;-87
2023/08/07 02:18:00;;;;;;;;;;;;;;;16.18;82.52;99146.49;107978;1256;61247;-87
2023/08/07 02:20:27;;;;;;;;;;;;;;;16.16;82.64;99146.02;107608;1256;125364;-85
2023/08/07 02:22:57;;;;;;;;;;;;;;;16.15;82.68;99150.08;108076;1255;66382;-85
2023/08/07 02:25:25;;;;;;;;;;;;;;;16.13;82.77;99153.49;107926;1256;70658;-86
2023/08/07 02:27:53;;;;;;;;;;;;;;;16.11;82.88;99152.13;107858;1258;125056;-86
2023/08/07 02:30:20;;;;;;;;;;;;;;;16.12;83.03;99157.59;107906;1256;59531;-85
2023/08/07 02:32:47;;;;;;;;;;;;;;;16.13;83.06;99156.66;108074;1256;124894;-86
2023/08/07 02:35:14;;;;;;;;;;;;;;;16.13;82.99;99153.48;108022;1256;65801;-86
2023/08/07 02:37:41;;;;;;;;;;;;;;;16.10;82.99;99148.80;108091;1256;72566;-86
2023/08/07 02:40:15;;;;;;;;;;;;;;;16.08;83.12;99154.65;107964;1256;124985;-86
2023/08/07 02:42:44;;;;;;;;;;;;;;;16.09;83.09;99165.42;108247;1256;60498;-86
2023/08/07 02:45:14;;;;;;;;;;;;;;;16.12;83.30;99161.83;107847;1257;125192;-85
2023/08/07 02:47:41;;;;;;;;;;;;;;;16.17;83.38;99161.20;107752;1256;65678;-87
2023/08/07 02:50:08;;;;;;;;;;;;;;;16.19;83.26;99168.93;108141;1261;71387;-87
2023/08/07 02:52:38;;;;;;;;;;;;;;;16.21;83.25;99177.91;108108;1258;125531;-86
2023/08/07 02:55:05;;;;;;;;;;;;;;;16.22;83.14;99175.08;108085;1256;59466;-87
2023/08/07 02:57:32;;;;;;;;;;;;;;;16.22;83.13;99170.64;108610;1256;125138;-87
2023/08/07 02:59:59;;;;;;;;;;;;;;;16.22;83.09;99171.34;108874;1256;67667;-87
2023/08/07 03:02:26;;;;;;;;;;;;;;;16.23;83.01;99177.33;108792;1257;73195;-87
2023/08/07 03:04:53;;;;;;;;;;;;;;;16.25;82.93;99180.11;108896;1259;59557;-86
2023/08/07 03:07:20;;;;;;;;;;;;;;;16.25;82.88;99186.66;108782;1256;60957;-86
2023/08/07 03:09:47;;;;;;;;;;;;;;;16.27;82.94;99197.94;108869;1256;126874;-87
2023/08/07 03:12:14;;;;;;;;;;;;;;;16.28;82.86;99202.34;108911;1257;66305;-86
2023/08/07 03:14:44;;;;;;;;;;;;;;;16.31;82.84;99199.63;109023;1256;123702;-86
2023/08/07 03:17:20;;;;;;;;;;;;;;;16.32;82.69;99196.59;109111;1255;59015;-93
2023/08/07 03:19:50;;;;;;;;;;;;;;;16.33;82.77;99186.48;109060;1258;59282;-93
2023/08/07 03:22:31;;;;;;;;;;;;;;;16.35;82.68;99188.38;108935;1261;124192;-94
2023/08/07 03:25:06;;;;;;;;;;;;;;;16.35;82.65;99179.18;108901;1256;67271;-94
2023/08/07 03:27:36;;;;;;;;;;;;;;;16.35;82.61;99176.34;107812;1256;125160;-93
2023/08/07 03:30:23;;;;;;;;;;;;;;;16.33;82.49;99171.24;107839;1256;61171;-94
2023/08/07 03:32:54;;;;;;;;;;;;;;;16.32;82.61;99182.77;107954;1260;124948;-87
2023/08/07 03:35:21;;;;;;;;;;;;;;;16.32;82.58;99198.36;107855;1256;74607;-87
2023/08/07 03:37:48;;;;;;;;;;;;;;;16.31;82.45;99198.73;108070;1256;67566;-87
2023/08/07 03:40:15;;;;;;;;;;;;;;;16.30;82.43;99201.59;107964;1259;125348;-86
2023/08/07 03:42:42;;;;;;;;;;;;;;;16.30;82.42;99217.33;108023;1256;59736;-86
2023/08/07 03:45:09;;;;;;;;;;;;;;;16.33;82.51;99226.30;107880;1256;126194;-84
2023/08/07 03:47:36;;;;;;;;;;;;;;;16.34;82.39;99227.34;107700;1256;74548;-85
2023/08/07 03:50:07;;;;;;;;;;;;;;;16.35;82.24;99231.21;107607;1256;67020;-84
2023/08/07 03:52:34;;;;;;;;;;;;;;;16.37;82.09;99233.84;107558;1256;125587;-84
2023/08/07 03:55:01;;;;;;;;;;;;;;;16.37;82.02;99237.19;107748;1255;59770;-85
2023/08/07 03:57:31;;;;;;;;;;;;;;;16.38;81.94;99230.95;107587;1256;125141;-85
2023/08/07 03:59:58;;;;;;;;;;;;;;;16.38;81.88;99226.36;107746;1264;75855;-84
2023/08/07 04:02:25;;;;;;;;;;;;;;;16.38;81.73;99226.54;107824;1263;68223;-84
2023/08/07 04:04:53;;;;;;;;;;;;;;;16.40;81.66;99220.67;107823;1262;73627;-84
2023/08/07 04:07:20;;;;;;;;;;;;;;;16.43;81.63;99218.30;108062;1255;60905;-85
2023/08/07 04:09:47;;;;;;;;;;;;;;;16.50;81.67;99214.24;108005;1256;125581;-84
2023/08/07 04:12:14;;;;;;;;;;;;;;;16.59;81.66;99201.09;107709;1262;77010;-86
2023/08/07 04:14:45;;;;;;;;;;;;;;;16.71;81.50;99198.31;107799;1256;125589;-85
2023/08/07 04:17:14;;;;;;;;;;;;;;;16.78;81.12;99202.74;108052;1262;72901;-85
2023/08/07 04:19:44;;;;;;;;;;;;;;;16.82;81.01;99209.55;107790;1256;61923;-85
2023/08/07 04:22:13;;;;;;;;;;;;;;;16.86;80.80;99215.69;107750;1262;124713;-85
2023/08/07 04:24:43;;;;;;;;;;;;;;;16.99;81.00;99214.30;107980;1256;74537;-86
2023/08/07 04:27:10;;;;;;;;;;;;;;;17.11;80.67;99222.30;107729;1256;125214;-83
2023/08/07 04:29:39;;;;;;;;;;;;;;;17.29;80.60;99217.23;107881;1256;71377;-83
2023/08/07 04:32:06;;;;;;;;;;;;;;;17.45;80.33;99207.92;108015;1256;61279;-83
2023/08/07 04:34:33;;;;;;;;;;;;;;;17.53;79.66;99217.64;107833;1256;125248;-83
2023/08/07 04:37:00;;;;;;;;;;;;;;;17.51;79.28;99224.05;107954;1262;74511;-83
2023/08/07 04:39:27;;;;;;;;;;;;;;;17.44;79.03;99226.91;107873;1256;125406;-83
2023/08/07 04:42:04;;;;;;;;;;;;;;;17.39;78.89;99233.62;107866;1256;73068;-83
2023/08/07 04:44:31;;;;;;;;;;;;;;;17.27;78.63;99240.31;107708;1256;125316;-83
2023/08/07 04:46:58;;;;;;;;;;;;;;;17.22;78.78;99241.70;107883;1261;60186;-86
2023/08/07 04:49:34;;;;;;;;;;;;;;;17.15;78.78;99237.09;107742;1262;76505;-85
2023/08/07 04:52:09;;;;;;;;;;;;;;;17.13;79.01;99238.21;108192;1256;124754;-90
2023/08/07 04:54:36;;;;;;;;;;;;;;;17.15;79.07;99244.02;108812;1259;72639;-89
2023/08/07 04:57:07;;;;;;;;;;;;;;;17.14;78.69;99247.40;107908;1261;124829;-91
2023/08/07 04:59:36;;;;;;;;;;;;;;;17.09;78.40;99252.66;107613;1256;61138;-92
2023/08/07 05:02:04;;;;;;;;;;;;;;;17.09;78.65;99254.79;107648;1256;74005;-86
2023/08/07 05:04:31;;;;;;;;;;;;;;;17.18;78.66;99256.88;107773;1256;124846;-85
2023/08/07 05:07:03;;;;;;;;;;;;;;;17.30;78.65;99254.07;107739;1261;73425;-85
2023/08/07 05:09:30;;;;;;;;;;;;;;;17.39;78.34;99253.30;107359;1256;125930;-88
2023/08/07 05:12:00;;;;;;;;;;;;;;;17.51;78.35;99261.86;107349;1256;61325;-93
2023/08/07 05:14:30;;;;;;;;;;;;;;;17.64;78.13;99259.71;107568;1256;73877;-92
2023/08/07 05:17:18;;;;;;;;;;;;;;;17.75;77.98;99260.14;107830;1256;69665;-95
2023/08/07 05:19:50;;;;;;;;;;;;;;;17.88;77.68;99261.36;108097;1253;81502;-89
2023/08/07 05:22:24;;;;;;;;;;;;;;;18.06;77.72;99252.33;107324;1256;122830;-88
2023/08/07 05:24:51;;;;;;;;;;;;;;;18.25;77.25;99241.30;107341;1256;59137;-88
2023/08/07 05:27:45;;;;;;;;;;;;;;;18.38;76.95;99233.63;107287;1254;123472;-87
2023/08/07 05:30:12;;;;;;;;;;;;;;;18.42;76.26;99231.17;107618;1256;67067;-88
2023/08/07 05:32:40;;;;;;;;;;;;;;;18.44;76.26;99222.40;107496;1254;125275;-88
2023/08/07 05:35:22;;;;;;;;;;;;;;;18.52;76.20;99218.96;107267;1254;61318;-87
2023/08/07 05:37:49;;;;;;;;;;;;;;;18.57;75.77;99223.44;107654;1254;59989;-89
2023/08/07 05:40:18;;;;;;;;;;;;;;;18.62;75.86;99234.81;107518;1254;124902;-88
2023/08/07 05:42:48;;;;;;;;;;;;;;;18.71;75.70;99235.23;107467;1255;67416;-89
2023/08/07 05:45:16;;;;;;;;;;;;;;;18.80;75.65;99233.90;107468;1256;124722;-88
2023/08/07 05:47:58;;;;;;;;;;;;;;;18.82;75.34;99231.50;107452;1254;61217;-88
2023/08/07 05:50:25;;;;;;;;;;;;;;;18.81;74.89;99230.31;107384;1255;61763;-88
2023/08/07 05:53:16;;;;;;;;;;;;;;;18.81;74.64;99228.00;107274;1254;124359;-89
2023/08/07 05:55:56;;;;;;;;;;;;;;;18.89;74.80;99232.71;107609;1255;66915;-88
2023/08/07 05:58:32;;;;;;;;;;;;;;;19.02;74.56;99232.80;107325;1255;124279;-88
2023/08/07 06:01:00;;;;;;;;;;;;;;;19.10;74.04;99241.61;107594;1256;61167;-88
2023/08/07 06:03:28;;;;;;;;;;;;;;;19.09;73.79;99247.88;107570;1254;124266;-88
2023/08/07 06:06:10;;;;;;;;;;;;;;;19.13;73.75;99264.63;107836;1259;73496;-88
2023/08/07 06:08:38;;;;;;;;;;;;;;;19.29;73.83;99271.20;107844;1259;123990;-90
2023/08/07 06:11:08;;;;;;;;;;;;;;;19.42;73.53;99272.71;107732;1254;72421;-89
2023/08/07 06:13:35;;;;;;;;;;;;;;;19.48;73.39;99267.69;107744;1254;61406;-88
2023/08/07 06:16:05;;;;;;;;;;;;;;;19.58;73.13;99268.77;107292;1254;124832;-89
2023/08/07 06:18:34;;;;;;;;;;;;;;;19.72;73.24;99261.68;104055;1260;4852141;-88
2023/08/07 06:21:06;;;;;;;;;;;;;;;20.00;72.78;99254.46;107552;1256;125169;-88
2023/08/07 06:23:38;;;;;;;;;;;;;;;20.13;72.33;99235.95;107771;1256;60029;-90
2023/08/07 06:26:07;;;;;;;;;;;;;;;20.19;71.78;99232.17;107471;1255;61312;-89
2023/08/07 06:28:36;;;;;;;;;;;;;;;20.33;71.74;99238.21;107447;1256;123182;-87
2023/08/07 06:31:05;;;;;;;;;;;;;;;20.55;71.46;99247.34;107525;1254;65737;-89
2023/08/07 06:33:34;;;;;;;;;;;;;;;20.78;70.90;99250.02;107370;1254;124016;-88
2023/08/07 06:36:04;;;;;;;;;;;;;;;20.90;70.38;99255.73;107820;1255;61240;-89
2023/08/07 06:38:38;;;;;;;;;;;;;;;20.97;70.11;99263.13;107834;1254;61241;-87
2023/08/07 06:41:13;;;;;;;;;;;;;;;20.97;69.79;99263.47;107358;1256;74719;-89
2023/08/07 06:43:47;;;;;;;;;;;;;;;21.03;69.81;99263.06;107491;1254;65765;-88
2023/08/07 06:49:38;;;;;;;;;;;;;;;21.44;69.21;99276.15;107548;1255;61258;-88
2023/08/07 06:52:06;;;;;;;;;;;;;;;21.56;68.96;99281.17;107308;1254;124873;-87
2023/08/07 06:54:36;;;;;;;;;;;;;;;21.68;68.73;99280.11;107401;1256;74880;-86
2023/08/07 06:57:12;;;;;;;;;;;;;;;21.96;68.90;99283.00;107593;1254;124371;-85
2023/08/07 06:59:53;;;;;;;;;;;;;;;22.15;67.94;99286.04;107864;1259;71444;-85
2023/08/07 07:02:21;;;;;;;;;;;;;;;22.27;67.54;99282.65;107572;1259;61263;-84
2023/08/07 07:04:52;;;;;;;;;;;;;;;22.42;67.01;99286.60;107530;1255;124006;-85
2023/08/07 07:07:19;;;;;;;;;;;;;;;22.51;66.51;99297.28;107790;1254;73394;-86
2023/08/07 07:09:47;;;;;;;;;;;;;;;22.49;65.98;99307.36;107646;1255;124714;-85
2023/08/07 07:12:14;;;;;;;;;;;;;;;22.47;65.94;99310.17;107485;1254;71235;-86
2023/08/07 07:14:43;;;;;;;;;;;;;;;22.61;66.08;99309.69;107462;1256;124045;-88
2023/08/07 07:17:19;;;;;;;;;;;;;;;22.84;65.82;99311.25;107648;1256;61277;-84
2023/08/07 07:19:48;;;;;;;;;;;;;;;23.05;65.24;99307.00;107356;1257;72654;-84
2023/08/07 07:22:21;;;;;;;;;;;;;;;23.07;64.51;99307.80;107383;1256;124084;-86
2023/08/07 07:25:16;;;;;;;;;;;;;;;22.91;63.94;99313.40;107475;1255;71193;-87
2023/08/07 07:27:43;;;;;;;;;;;;;;;22.80;63.56;99312.70;107497;1254;124320;-84
2023/08/07 07:30:17;;;;;;;;;;;;;;;22.78;63.47;99315.52;107674;1259;61114;-83
2023/08/07 07:32:45;;;;;;;;;;;;;;;22.69;63.48;99313.36;107373;1254;124152;-85
2023/08/07 07:35:20;;;;;;;;;;;;;;;22.81;63.60;99313.20;107496;1254;65593;-85
2023/08/07 07:37:54;;;;;;;;;;;;;;;22.87;63.07;99315.01;107569;1257;72009;-85
2023/08/07 07:40:23;;;;;;;;;;;;;;;22.79;62.56;99317.07;107495;1256;124090;-85
2023/08/07 07:43:04;;;;;;;;;;;;;;;22.63;62.26;99308.34;107621;1254;61234;-84
2023/08/07 07:45:33;;;;;;;;;;;;;;;22.43;62.06;99306.77;107314;1261;124099;-83
2023/08/07 07:48:03;;;;;;;;;;;;;;;22.21;62.07;99301.13;107640;1256;64593;-83
2023/08/07 07:50:36;;;;;;;;;;;;;;;21.99;62.26;99301.95;107650;1256;71363;-84
2023/08/07 07:53:03;;;;;;;;;;;;;;;21.82;62.62;99304.33;107845;1260;59840;-84
2023/08/07 07:55:30;;;;;;;;;;;;;;;21.78;62.84;99300.58;108034;1256;59883;-82
2023/08/07 07:58:14;;;;;;;;;;;;;;;21.85;62.85;99306.13;107774;1254;124620;-84
2023/08/07 08:00:43;;;;;;;;;;;;;;;22.05;62.98;99307.92;107728;1254;65812;-84
2023/08/07 08:03:10;;;;;;;;;;;;;;;22.33;63.01;99312.76;107824;1254;124797;-84
2023/08/07 08:05:43;;;;;;;;;;;;;;;22.48;62.31;99315.61;108040;1256;61262;-84
2023/08/07 08:08:11;;;;;;;;;;;;;;;22.50;61.76;99320.00;107651;1255;61225;-85
2023/08/07 08:10:38;;;;;;;;;;;;;;;22.41;61.57;99313.84;107470;1259;122817;-85
2023/08/07 08:13:17;;;;;;;;;;;;;;;22.36;61.41;99314.05;107731;1260;65769;-84
2023/08/07 08:15:55;;;;;;;;;;;;;;;22.25;61.14;99317.23;107667;1255;123986;-83
2023/08/07 08:18:22;;;;;;;;;;;;;;;22.10;61.24;99316.46;107619;1256;61341;-82
2023/08/07 08:20:49;;;;;;;;;;;;;;;22.15;61.36;99317.11;107557;1256;61359;-83
2023/08/07 08:23:17;;;;;;;;;;;;;;;22.24;61.23;99320.83;107823;1256;74745;-83
2023/08/07 08:25:47;;;;;;;;;;;;;;;22.25;61.08;99322.58;107697;1256;65681;-83
2023/08/07 08:28:22;;;;;;;;;;;;;;;22.30;61.16;99325.23;107654;1256;71060;-84
2023/08/07 08:30:49;;;;;;;;;;;;;;;22.41;61.13;99328.48;107597;1256;59358;-83
2023/08/07 08:33:22;;;;;;;;;;;;;;;22.51;60.96;99324.25;107457;1256;61205;-85
2023/08/07 08:36:03;;;;;;;;;;;;;;;22.62;60.95;99325.54;107664;1255;74450;-86
2023/08/07 08:38:36;;;;;;;;;;;;;;;22.69;60.79;99328.25;107882;1256;65730;-83
2023/08/07 08:41:08;;;;;;;;;;;;;;;22.84;60.71;99334.14;107497;1259;123086;-84
2023/08/07 08:43:38;;;;;;;;;;;;;;;22.87;60.23;99336.52;107618;1256;61382;-87
2023/08/07 08:46:11;;;;;;;;;;;;;;;22.70;59.84;99343.73;107394;1256;124342;-88
2023/08/07 08:48:39;;;;;;;;;;;;;;;22.53;59.95;99347.95;107412;1261;73517;-84
2023/08/07 08:51:22;;;;;;;;;;;;;;;22.40;59.59;99351.23;107386;1256;124596;-85
2023/08/07 08:53:59;;;;;;;;;;;;;;;22.24;59.85;99360.14;107382;1256;72813;-83
2023/08/07 08:56:26;;;;;;;;;;;;;;;22.23;59.98;99366.44;107441;1256;61286;-84
2023/08/07 08:58:55;;;;;;;;;;;;;;;22.26;59.90;99378.11;107605;1261;123926;-84
2023/08/07 09:01:30;;;;;;;;;;;;;;;22.14;59.68;99387.23;107551;1256;73170;-86
2023/08/07 09:04:00;;;;;;;;;;;;;;;22.02;59.76;99390.80;107197;1256;122933;-85
2023/08/07 09:06:29;;;;;;;;;;;;;;;21.95;59.73;99402.89;107382;1256;71490;-85
2023/08/07 09:09:11;;;;;;;;;;;;;;;21.85;59.88;99408.27;107381;1256;124159;-85
2023/08/07 09:11:52;;;;;;;;;;;;;;;21.80;59.96;99411.21;107505;1256;61228;-86
2023/08/07 09:14:26;;;;;;;;;;;;;;;21.85;59.84;99404.73;107576;1256;73453;-85
2023/08/07 09:17:11;;;;;;;;;;;;;;;21.88;60.14;99401.91;107379;1255;124178;-85
2023/08/07 09:19:41;;;;;;;;;;;;;;;22.13;60.80;99401.91;107498;1256;72483;-84
2023/08/07 09:22:22;;;;;;;;;;;;;;;22.46;60.44;99386.70;107360;1257;123579;-90
2023/08/07 09:25:01;;;;;;;;;;;;;;;22.55;59.55;99392.70;107413;1260;61260;-89
2023/08/07 09:27:59;;;;;;;;;;;;;;;22.61;59.24;99399.96;107680;1256;123959;-92
2023/08/07 09:37:33;;;;;;;;;;;;;;;22.78;58.14;99431.75;108196;1259;60362;-89
2023/08/07 09:40:01;;;;;;;;;;;;;;;22.65;58.00;99436.05;107457;1262;123140;-88
2023/08/07 09:42:33;;;;;;;;;;;;;;;22.54;57.91;99438.70;107200;1259;74671;-85
2023/08/07 09:45:00;;;;;;;;;;;;;;;22.49;58.12;99440.19;106914;1259;124151;-83
2023/08/07 09:47:27;;;;;;;;;;;;;;;22.48;57.92;99441.14;107134;1260;72458;-83
2023/08/07 09:49:56;;;;;;;;;;;;;;;22.52;57.98;99441.66;107360;1260;61473;-83
2023/08/07 09:52:32;;;;;;;;;;;;;;;22.52;57.66;99441.46;107273;1260;125189;-84
2023/08/07 09:55:05;;;;;;;;;;;;;;;22.55;57.72;99445.13;107166;1259;73402;-85
2023/08/07 09:57:41;;;;;;;;;;;;;;;22.71;57.77;99432.24;107375;1260;124340;-87
2023/08/07 10:00:16;;;;;;;;;;;;;;;22.89;57.49;99434.45;107221;1262;74275;-88
2023/08/07 10:02:43;;;;;;;;;;;;;;;23.00;56.91;99429.27;107440;1259;61195;-85
2023/08/07 10:05:11;;;;;;;;;;;;;;;22.94;56.53;99427.03;107280;1255;123482;-85
2023/08/07 10:07:38;;;;;;;;;;;;;;;22.85;56.30;99429.95;107513;1254;74436;-85
2023/08/07 10:10:20;;;;;;;;;;;;;;;22.91;56.39;99437.17;107506;1256;123883;-84
2023/08/07 10:12:55;;;;;;;;;;;;;;;23.05;56.39;99429.05;107417;1256;72489;-84
2023/08/07 10:15:32;;;;;;;;;;;;;;;23.20;56.04;99422.64;107351;1261;124318;-83
2023/08/07 10:17:59;;;;;;;;;;;;;;;23.25;55.84;99424.53;107499;1256;61254;-84
2023/08/07 10:20:28;;;;;;;;;;;;;;;23.36;55.67;99423.29;107377;1254;73797;-84
2023/08/07 10:23:07;;;;;;;;;;;;;;;23.41;55.15;99427.00;107508;1259;124277;-82
2023/08/07 10:25:39;;;;;;;;;;;;;;;23.47;55.06;99439.73;107485;1260;71198;-85
2023/08/07 10:28:11;;;;;;;;;;;;;;;23.63;55.03;99445.21;107374;1256;124120;-84
2023/08/07 10:30:57;;;;;;;;;;;;;;;23.83;54.72;99445.16;107648;1254;60477;-84
2023/08/07 10:33:24;;;;;;;;;;;;;;;23.85;54.11;99446.28;107755;1255;124179;-84
2023/08/07 10:35:59;;;;;;;;;;;;;;;23.78;53.83;99448.80;107800;1257;66296;-84
2023/08/07 10:38:39;;;;;;;;;;;;;;;23.78;53.63;99446.28;107648;1257;71342;-84
2023/08/07 10:41:06;;;;;;;;;;;;;;;23.81;53.62;99452.05;107717;1256;123863;-85
2023/08/07 10:43:39;;;;;;;;;;;;;;;23.90;53.59;99458.24;108109;1254;60774;-84
2023/08/07 10:46:09;;;;;;;;;;;;;;;23.98;53.15;99461.04;107883;1256;124107;-87
2023/08/07 10:48:39;;;;;;;;;;;;;;;24.02;52.90;99463.16;108156;1254;68521;-85
2023/08/07 10:51:14;;;;;;;;;;;;;;;24.01;52.75;99458.20;108016;1258;124092;-83
2023/08/07 10:53:55;;;;;;;;;;;;;;;23.95;52.65;99459.20;107784;1257;61437;-85
2023/08/07 10:56:35;;;;;;;;;;;;;;;23.81;52.64;99455.44;107422;1254;61166;-83
2023/08/07 10:59:10;;;;;;;;;;;;;;;23.81;52.80;99454.58;107288;1259;124466;-84
2023/08/07 11:01:43;;;;;;;;;;;;;;;23.79;52.84;99463.25;107718;1259;67391;-81
2023/08/07 11:04:12;;;;;;;;;;;;;;;23.79;52.52;99461.62;107698;1257;124133;-83
2023/08/07 11:06:42;;;;;;;;;;;;;;;23.77;52.36;99456.90;107639;1257;61346;-86
2023/08/07 11:09:11;;;;;;;;;;;;;;;23.81;52.36;99459.95;107407;1257;124130;-82
2023/08/07 11:11:46;;;;;;;;;;;;;;;23.92;52.90;99465.32;107589;1254;74838;-84
2023/08/07 11:14:20;;;;;;;;;;;;;;;23.92;52.21;99467.48;107438;1260;65670;-84
2023/08/07 11:16:48;;;;;;;;;;;;;;;23.81;52.04;99483.20;107372;1254;123951;-86
2023/08/07 11:19:15;;;;;;;;;;;;;;;23.78;51.80;99482.48;107380;1255;61361;-87
2023/08/07 11:21:59;;;;;;;;;;;;;;;23.72;51.80;99477.38;107312;1259;123274;-85
2023/08/07 11:24:31;;;;;;;;;;;;;;;23.73;51.90;99491.33;107411;1255;73770;-88
2023/08/07 11:27:11;;;;;;;;;;;;;;;23.83;51.80;99496.40;107281;1255;65871;-90
2023/08/07 11:29:48;;;;;;;;;;;;;;;23.87;51.67;99507.13;107230;1259;73763;-87
2023/08/07 11:32:15;;;;;;;;;;;;;;;23.84;51.18;99514.98;107351;1256;61252;-88
2023/08/07 11:34:53;;;;;;;;;;;;;;;23.83;51.37;99513.77;107386;1259;124614;-87
2023/08/07 11:37:26;;;;;;;;;;;;;;;23.97;51.36;99509.85;107647;1255;74650;-88
2023/08/07 11:39:59;;;;;;;;;;;;;;;24.06;51.22;99511.90;107500;1258;122759;-88
2023/08/07 11:42:27;;;;;;;;;;;;;;;24.11;50.82;99510.60;107422;1259;72606;-86
2023/08/07 11:45:07;;;;;;;;;;;;;;;24.08;50.92;99514.30;107368;1254;61164;-87
2023/08/07 11:47:34;;;;;;;;;;;;;;;24.19;50.71;99509.96;107528;1256;59510;-89
2023/08/07 11:50:01;;;;;;;;;;;;;;;24.20;50.55;99508.30;107383;1257;73155;-88
2023/08/07 11:52:29;;;;;;;;;;;;;;;24.12;50.43;99507.67;107230;1259;124048;-88
2023/08/07 11:55:03;;;;;;;;;;;;;;;24.04;50.57;99504.30;107355;1257;72702;-88
2023/08/07 11:57:32;;;;;;;;;;;;;;;23.95;50.49;99502.06;107325;1254;124299;-88
2023/08/07 12:00:16;;;;;;;;;;;;;;;23.85;50.37;99505.05;107312;1254;61199;-87
2023/08/07 12:02:43;;;;;;;;;;;;;;;23.82;50.58;99499.30;107176;1254;75094;-88
2023/08/07 12:05:13;;;;;;;;;;;;;;;23.88;50.67;99499.20;107273;1257;124136;-87
2023/08/07 12:07:48;;;;;;;;;;;;;;;23.84;50.60;99504.23;107360;1254;72519;-89
2023/08/07 12:10:15;;;;;;;;;;;;;;;23.70;50.54;99497.54;107702;1259;123993;-87
2023/08/07 12:12:49;;;;;;;;;;;;;;;23.72;50.74;99495.84;107471;1256;61402;-88
2023/08/07 12:15:25;;;;;;;;;;;;;;;23.75;50.58;99492.09;107115;1254;124050;-88
2023/08/07 12:18:01;;;;;;;;;;;;;;;23.73;50.51;99486.64;107360;1255;67305;-88
2023/08/07 12:20:33;;;;;;;;;;;;;;;23.84;50.98;99495.59;107329;1256;72482;-89
2023/08/07 12:23:00;;;;;;;;;;;;;;;23.99;50.83;99498.61;107450;1256;124083;-90
2023/08/07 12:25:27;;;;;;;;;;;;;;;24.16;50.56;99491.13;107269;1262;61241;-88
2023/08/07 12:28:07;;;;;;;;;;;;;;;24.28;50.59;99497.33;107263;1257;123939;-89
2023/08/07 12:30:35;;;;;;;;;;;;;;;24.23;49.92;99494.36;107226;1257;67047;-87
2023/08/07 12:33:30;;;;;;;;;;;;;;;24.05;49.90;99502.81;107180;1256;72785;-90
2023/08/07 12:35:59;;;;;;;;;;;;;;;24.02;50.11;99504.03;107239;1261;61203;-86
2023/08/07 12:38:38;;;;;;;;;;;;;;;24.17;49.95;99508.14;107299;1260;61242;-88
2023/08/07 12:41:14;;;;;;;;;;;;;;;24.33;49.99;99520.05;107251;1259;123972;-88
2023/08/07 12:43:56;;;;;;;;;;;;;;;24.49;49.87;99516.69;107436;1256;66919;-88
2023/08/07 12:46:29;;;;;;;;;;;;;;;24.56;49.73;99526.05;107440;1260;124446;-85
2023/08/07 12:48:59;;;;;;;;;;;;;;;24.57;49.38;99518.29;107269;1255;61214;-85
2023/08/07 12:51:26;;;;;;;;;;;;;;;24.49;49.07;99509.38;107282;1257;124105;-83
2023/08/07 12:53:59;;;;;;;;;;;;;;;24.48;49.25;99494.69;107196;1257;73454;-85
2023/08/07 12:56:28;;;;;;;;;;;;;;;24.44;49.34;99494.70;107291;1262;66906;-85
2023/08/07 12:58:58;;;;;;;;;;;;;;;24.36;49.13;99500.70;107187;1257;124304;-84
2023/08/07 13:01:52;;;;;;;;;;;;;;;24.04;48.82;99508.41;107152;1258;61058;-84
2023/08/07 13:04:25;;;;;;;;;;;;;;;23.65;49.14;99515.68;107562;1257;123946;-85